Stations météo

réclame
Mon MeteoGroup
Dourbes, Belgique (6455): Température de l'air & dewpoint: 13.06.2019 11:00:00 - 19.06.2019 11:00:00 (CEST)Dourbes, Belgique (6455): Vitesse du vent & gusts: 13.06.2019 11:00:00 - 19.06.2019 11:00:00 (CEST)Dourbes, Belgique (6455): Direction du vent: 13.06.2019 11:00:00 - 19.06.2019 11:00:00 (CEST)Dourbes, Belgique (6455): reduced air pressure: 13.06.2019 11:00:00 - 19.06.2019 11:00:00 (CEST)Dourbes, Belgique (6455): Ensoleillement: 13.06.2019 11:00:00 - 19.06.2019 11:00:00 (CEST)Dourbes, Belgique (6455): Quantités de précipitations: 13.06.2019 11:00:00 - 19.06.2019 11:00:00 (CEST)
Date & Time tt [°C] td [°C] ff [km/h] ff [knt] fx [km/h] fx [knt] dd ppp [hPa] sd [min] rr [mm]
19.06.2019 11:00:00 - - - - - - - - - -
19.06.2019 10:00:00 21,1 16,2 12 6 24 13 S 1007,4 6 0,0
19.06.2019 09:00:00 21,6 16,2 10 5 21 12 S 1006,7 60 0,0
19.06.2019 08:00:00 20,2 15,4 7 4 17 9 S 1006,5 57 0,0
19.06.2019 07:00:00 17,2 15,0 5 3 11 6 WNW 1006,5 33 0,0
19.06.2019 06:00:00 17,5 15,1 5 3 10 5 E 1006,7 0 0,0
19.06.2019 05:00:00 17,0 14,6 6 3 9 5 NE 1007,4 0 0,0
19.06.2019 04:00:00 17,2 14,3 6 4 11 6 NE 1007,8 0 0,0
19.06.2019 03:00:00 17,0 14,2 6 3 9 5 NE 1008,4 0 0,0
19.06.2019 02:00:00 16,5 13,9 4 2 8 5 ENE 1009,1 0 0,0
19.06.2019 01:00:00 16,8 14,2 5 3 8 4 NE 1009,6 0 0,0
19.06.2019 00:00:00 17,8 14,0 4 2 6 3 E 1010,2 0 0,0
18.06.2019 23:00:00 19,1 13,8 4 2 6 3 ESE 1010,6 0 0,0
18.06.2019 22:00:00 21,3 13,4 4 2 10 5 SE 1010,6 0 0,0
18.06.2019 21:00:00 23,7 12,5 6 3 13 7 SSE 1010,4 0 0,0
18.06.2019 20:00:00 24,7 13,1 7 4 14 7 SSE 1010,2 40 0,0
18.06.2019 19:00:00 26,0 12,1 4 2 16 9 SE 1010,4 60 0,0
18.06.2019 18:00:00 26,5 13,0 4 2 15 8 SSW 1010,8 58 0,0
18.06.2019 17:00:00 25,9 12,9 4 2 14 7 ESE 1011,2 54 0,0
18.06.2019 16:00:00 26,3 14,0 5 3 13 7 SW 1011,7 53 0,0
18.06.2019 15:00:00 26,0 14,3 4 2 15 8 WNW 1012,3 54 0,0
18.06.2019 14:00:00 25,2 13,3 4 2 11 6 ENE 1012,8 52 0,0
18.06.2019 13:00:00 24,7 13,6 5 3 11 6 NE 1013,1 51 0,0
18.06.2019 12:00:00 23,9 15,0 6 3 12 6 NNE 1013,4 60 0,0
18.06.2019 11:00:00 22,7 16,7 4 2 10 5 NNE 1013,7 60 0,0
18.06.2019 10:00:00 20,9 17,0 4 2 6 4 E 1014,2 54 0,0
18.06.2019 09:00:00 17,8 16,1 4 2 5 3 SE 1014,9 60 0,0
18.06.2019 08:00:00 15,9 15,2 4 2 4 2 ENE 1014,9 60 0,0
18.06.2019 07:00:00 12,9 12,9 4 2 3 2 E 1015,4 20 0,0
18.06.2019 06:00:00 12,5 12,5 0 0 3 2 N 1015,5 0 0,0
18.06.2019 05:00:00 12,9 12,8 0 0 4 2 N 1015,7 0 0,0
18.06.2019 04:00:00 13,4 13,3 4 2 4 2 ESE 1015,9 0 0,0
18.06.2019 03:00:00 13,7 13,5 4 2 5 3 ESE 1016,2 0 0,0
18.06.2019 02:00:00 14,2 13,8 0 0 4 2 N 1016,6 0 0,0
18.06.2019 01:00:00 15,1 14,2 0 0 4 2 N 1016,8 0 0,0
18.06.2019 00:00:00 16,3 14,6 4 2 4 2 SE 1016,7 0 0,0
17.06.2019 23:00:00 18,0 14,6 4 2 5 3 S 1016,5 0 0,0
17.06.2019 22:00:00 20,2 14,0 4 2 10 5 NNW 1016,1 0 0,0
17.06.2019 21:00:00 22,2 14,5 4 2 9 5 NW 1016,0 15 0,0
17.06.2019 20:00:00 24,1 13,3 4 2 8 5 WNW 1015,9 53 0,0
17.06.2019 19:00:00 24,7 13,5 4 2 8 4 WNW 1016,2 30 0,0
17.06.2019 18:00:00 24,5 13,4 5 3 12 7 NNW 1016,5 48 0,0
17.06.2019 17:00:00 24,5 12,8 5 3 10 5 W 1016,8 42 0,0
17.06.2019 16:00:00 24,9 13,1 4 2 14 7 W 1017,0 59 0,0
17.06.2019 15:00:00 23,9 12,0 4 2 9 5 S 1017,7 53 0,0
17.06.2019 14:00:00 24,0 14,0 4 2 14 7 NW 1018,0 55 0,0
17.06.2019 13:00:00 22,8 12,3 5 3 13 7 WSW 1018,7 51 0,0
17.06.2019 12:00:00 21,6 12,7 6 3 20 11 SSW 1019,0 54 0,0
17.06.2019 11:00:00 21,1 13,3 10 6 19 10 S 1019,6 60 0,0
17.06.2019 10:00:00 18,8 14,5 4 2 8 4 S 1020,0 60 0,0
17.06.2019 09:00:00 15,2 13,9 4 2 4 2 S 1020,4 60 0,0
17.06.2019 08:00:00 11,7 11,5 0 0 3 2 N 1020,8 60 0,0
17.06.2019 07:00:00 10,4 10,4 0 0 5 3 N 1020,9 34 0,0
17.06.2019 06:00:00 9,6 9,6 4 2 6 3 ESE 1021,0 0 0,0
17.06.2019 05:00:00 10,5 10,5 4 2 7 4 ENE 1020,9 0 0,0
17.06.2019 04:00:00 11,0 11,0 4 2 7 4 ENE 1021,0 0 0,0
17.06.2019 03:00:00 11,2 10,9 4 2 5 3 E 1021,2 0 0,0
17.06.2019 02:00:00 12,1 11,6 4 2 8 5 ENE 1021,2 0 0,0
17.06.2019 01:00:00 13,0 12,0 4 2 5 3 ESE 1021,1 0 0,0
17.06.2019 00:00:00 14,1 12,5 4 2 5 3 SE 1021,1 0 0,0
16.06.2019 23:00:00 14,8 12,6 4 2 5 3 E 1021,1 0 0,0
16.06.2019 22:00:00 16,8 13,0 4 2 6 4 ESE 1020,6 0 0,0
16.06.2019 21:00:00 18,6 12,8 5 3 13 7 SW 1020,3 9 0,0
16.06.2019 20:00:00 19,3 11,9 11 6 18 10 S 1020,4 58 0,0
16.06.2019 19:00:00 19,5 11,3 11 6 22 12 SSW 1020,2 27 0,0
16.06.2019 18:00:00 20,2 11,8 11 6 21 11 SSW 1020,1 45 0,0
16.06.2019 17:00:00 19,4 12,0 8 4 17 9 WSW 1020,2 11 0,0
16.06.2019 16:00:00 19,3 12,7 5 3 12 7 WSW 1020,5 10 0,0
16.06.2019 15:00:00 18,5 12,3 8 5 23 12 W 1020,5 21 0,0
16.06.2019 14:00:00 18,7 11,7 11 6 29 16 WSW 1020,5 28 0,0
16.06.2019 13:00:00 18,9 12,4 15 8 40 21 SSW 1020,6 28 0,0
16.06.2019 12:00:00 16,7 12,1 10 6 23 12 SW 1020,7 17 0,0
16.06.2019 11:00:00 16,1 12,4 10 6 24 13 SW 1020,5 23 0,0
16.06.2019 10:00:00 15,9 12,6 13 7 28 15 SSW 1020,2 31 0,0
16.06.2019 09:00:00 15,5 12,5 12 7 27 14 SW 1019,9 44 0,0
16.06.2019 08:00:00 14,9 12,4 11 6 22 12 SW 1019,6 54 0,0
16.06.2019 07:00:00 12,8 11,1 7 4 14 8 SW 1019,4 35 0,0
16.06.2019 06:00:00 12,1 10,3 8 4 16 9 SSW 1019,1 0 0,0
16.06.2019 05:00:00 12,4 10,4 7 4 14 7 WSW 1019,1 0 0,0
16.06.2019 04:00:00 11,5 9,9 6 4 10 5 SW 1018,9 0 0,0
16.06.2019 03:00:00 12,4 9,7 6 3 11 6 S 1018,6 0 0,0
16.06.2019 02:00:00 13,4 10,0 4 2 10 5 S 1018,6 0 0,0
16.06.2019 01:00:00 14,5 10,6 6 3 10 5 SW 1018,0 0 0,0
16.06.2019 00:00:00 14,5 10,5 5 3 10 5 SW 1017,4 0 0,0
15.06.2019 23:00:00 14,5 10,1 6 3 10 6 WSW 1017,1 0 0,0
15.06.2019 22:00:00 16,2 10,5 6 3 10 6 WSW 1016,3 0 0,0
15.06.2019 21:00:00 18,1 10,9 7 4 23 12 SW 1015,8 11 0,0
15.06.2019 20:00:00 19,4 11,2 7 4 21 12 WSW 1015,4 49 0,0
15.06.2019 19:00:00 19,9 10,8 14 8 24 13 SSW 1015,0 44 0,0
15.06.2019 18:00:00 20,7 11,6 13 7 29 15 SSW 1015,0 52 0,0
15.06.2019 17:00:00 20,9 12,0 14 7 29 16 SSW 1015,0 43 0,0
15.06.2019 16:00:00 21,0 13,1 14 8 34 19 SSW 1014,8 38 0,0
15.06.2019 15:00:00 20,3 12,3 17 9 30 16 SSW 1014,7 31 0,0
15.06.2019 14:00:00 20,0 10,8 18 10 33 18 SW 1014,9 52 0,0
15.06.2019 13:00:00 20,1 11,1 20 11 40 22 SSW 1014,4 59 0,0
15.06.2019 12:00:00 19,5 12,8 17 9 38 21 SW 1014,0 54 0,0
15.06.2019 11:00:00 18,3 15,9 13 7 26 14 SW 1013,5 59 0,0
15.06.2019 10:00:00 16,0 15,8 9 5 20 11 SW 1013,2 3 0,0
15.06.2019 09:00:00 15,7 15,7 8 4 14 8 SW 1012,5 0 0,0
15.06.2019 08:00:00 15,3 15,3 4 2 8 4 SSW 1011,8 0 0,1
15.06.2019 07:00:00 15,2 15,2 4 2 11 6 SSW 1011,4 0 0,2
15.06.2019 06:00:00 15,3 15,3 5 3 14 7 SSW 1010,9 0 5,1
15.06.2019 05:00:00 15,5 15,5 5 3 8 4 S 1010,6 0 3,3
15.06.2019 04:00:00 15,5 15,5 4 2 5 3 S 1010,2 0 2,7
15.06.2019 03:00:00 15,5 15,5 4 2 6 3 S 1010,6 0 2,0
15.06.2019 02:00:00 15,7 15,7 4 2 8 4 SE 1010,7 0 0,0
15.06.2019 01:00:00 15,8 15,5 4 2 4 2 N 1010,4 0 0,3
15.06.2019 00:00:00 16,3 15,6 4 2 29 15 SE 1011,8 0 7,0
14.06.2019 23:00:00 18,5 14,9 5 3 8 4 ESE 1012,1 0 0,0
14.06.2019 22:00:00 19,2 14,3 5 3 8 4 N 1011,3 0 0,0
14.06.2019 21:00:00 20,5 14,2 4 2 11 6 NNW 1011,0 0 0,0
14.06.2019 20:00:00 22,2 13,5 4 2 10 5 N 1010,9 40 0,0
14.06.2019 19:00:00 23,3 13,6 4 2 13 7 NNW 1010,9 60 0,0
14.06.2019 18:00:00 23,2 14,7 6 4 16 8 NW 1011,4 46 0,0
14.06.2019 17:00:00 23,1 13,0 6 4 16 9 S 1011,8 24 0,0
14.06.2019 16:00:00 22,0 12,5 9 5 24 13 S 1012,5 36 0,0
14.06.2019 15:00:00 22,4 13,3 11 6 26 14 SSW 1013,0 53 0,0
14.06.2019 14:00:00 - - - - - - - - - -
14.06.2019 13:00:00 19,9 13,7 12 7 30 16 SSW 1014,0 23 0,0
14.06.2019 12:00:00 19,8 13,4 15 8 29 16 S 1013,7 59 0,0
14.06.2019 11:00:00 17,2 11,7 21 11 34 18 SSW 1013,9 50 0,0
14.06.2019 10:00:00 15,4 13,2 7 4 13 7 SSE 1013,3 31 0,0
14.06.2019 09:00:00 11,9 11,8 7 4 21 11 E 1013,0 0 0,4
14.06.2019 08:00:00 11,7 11,5 7 4 20 11 W 1014,0 0 0,4
14.06.2019 07:00:00 10,5 10,4 4 2 6 4 S 1013,9 0 0,0
14.06.2019 06:00:00 9,5 9,3 0 0 6 3 N 1013,3 0 0,0
14.06.2019 05:00:00 10,3 10,0 4 2 6 3 NE 1012,3 0 0,0
14.06.2019 04:00:00 10,3 9,8 0 0 8 4 N 1012,5 0 0,0
14.06.2019 03:00:00 11,1 10,0 4 2 7 4 ESE 1012,6 0 0,0
14.06.2019 02:00:00 11,7 9,5 4 2 12 6 SE 1013,1 0 0,0
14.06.2019 01:00:00 12,1 10,3 4 2 10 5 ESE 1013,2 0 0,0
14.06.2019 00:00:00 13,0 10,3 5 3 14 8 SE 1013,1 0 0,0
13.06.2019 23:00:00 14,0 10,6 8 4 23 12 S 1012,8 0 0,0
13.06.2019 22:00:00 14,9 10,8 13 7 25 14 S 1011,8 0 0,0
13.06.2019 21:00:00 15,8 10,9 12 6 28 15 S 1011,4 2 0,0
13.06.2019 20:00:00 16,5 11,0 18 10 39 21 S 1011,2 58 0,0
13.06.2019 19:00:00 16,1 12,4 18 10 42 23 S 1010,7 60 0,0
13.06.2019 18:00:00 14,7 11,8 18 10 41 22 S 1011,7 5 0,1
13.06.2019 17:00:00 16,0 12,1 16 9 - - SSW 1011,2 23 0,8
13.06.2019 16:00:00 16,9 11,4 22 12 45 24 S 1011,4 13 0,2
13.06.2019 15:00:00 17,9 11,1 23 13 42 23 SSW 1010,9 46 0,0
13.06.2019 14:00:00 14,7 10,7 22 12 47 25 S 1011,9 16 0,0
13.06.2019 13:00:00 15,2 8,9 29 16 51 28 S 1011,9 29 0,0
13.06.2019 12:00:00 15,2 9,3 23 12 44 24 S 1011,9 35 0,0
13.06.2019 11:00:00 14,1 10,0 16 9 37 20 S 1012,2 37 0,0

tt = Température de l'air
td = dewpoint
ff = Vitesse du vent
fx = gusts
dd = Direction du vent
ppp = reduced air pressure
sd = Ensoleillement
rr = Quantités de précipitations

stations d'obs. à proximité